createdAt,value
2024-04-10T00:00:47.157Z,0.96
2024-04-10T00:01:47.171Z,0.84
2024-04-10T00:02:47.118Z,1.64
2024-04-10T00:03:47.221Z,1.38
2024-04-10T00:04:47.397Z,1.24
2024-04-10T00:05:47.168Z,0.94
2024-04-10T00:06:47.133Z,1.23
2024-04-10T00:07:47.154Z,1.18
2024-04-10T00:08:47.139Z,1.04
2024-04-10T00:09:47.172Z,1.24
2024-04-10T00:10:47.360Z,1.05
2024-04-10T00:11:47.270Z,1.35
2024-04-10T00:12:47.243Z,1.39
2024-04-10T00:13:47.320Z,1.31
2024-04-10T00:14:47.279Z,0.91
2024-04-10T00:15:47.303Z,1.12
2024-04-10T00:16:47.383Z,1.05
2024-04-10T00:17:47.511Z,1.18
2024-04-10T00:18:47.502Z,0.86
2024-04-10T00:19:47.448Z,1.06
2024-04-10T00:20:47.437Z,1.16
2024-04-10T00:21:47.442Z,0.96
2024-04-10T00:22:48.060Z,1.02
2024-04-10T00:23:47.510Z,1.32
2024-04-10T00:24:47.518Z,1.10
2024-04-10T00:25:47.575Z,1.28
2024-04-10T00:26:47.558Z,1.31
2024-04-10T00:27:47.588Z,1.09
2024-04-10T00:28:47.735Z,1.29
2024-04-10T00:29:47.652Z,1.04
2024-04-10T00:30:47.670Z,1.06
2024-04-10T00:31:47.747Z,1.17
2024-04-10T00:32:47.806Z,1.09
2024-04-10T00:33:47.790Z,1.41
2024-04-10T00:34:47.798Z,1.12
2024-04-10T00:35:47.816Z,1.08
2024-04-10T00:36:47.802Z,1.53
2024-04-10T00:37:47.884Z,1.58
2024-04-10T00:38:47.850Z,1.14
2024-04-10T00:39:47.878Z,1.56
2024-04-10T00:40:47.936Z,1.39
2024-04-10T00:41:47.947Z,1.45
2024-04-10T00:42:47.948Z,1.42
2024-04-10T00:43:48.087Z,1.15
2024-04-10T00:44:47.986Z,1.06
2024-04-10T00:45:48.018Z,0.98
2024-04-10T00:46:48.100Z,1.33
2024-04-10T00:47:48.192Z,1.37
2024-04-10T00:48:48.344Z,0.97
2024-04-10T00:49:48.229Z,1.42
2024-04-10T00:50:48.160Z,1.50
2024-04-10T00:51:48.212Z,1.54
2024-04-10T00:52:48.224Z,1.14
2024-04-10T00:53:48.343Z,1.08
2024-04-10T00:54:48.267Z,1.10
2024-04-10T00:55:48.324Z,1.17
2024-04-10T00:56:48.315Z,1.42
2024-04-10T00:57:48.356Z,1.17
2024-04-10T00:58:48.388Z,0.83
2024-04-10T00:59:48.420Z,1.05
2024-04-10T01:00:48.481Z,1.72
2024-04-10T01:01:48.502Z,0.97
2024-04-10T01:02:48.502Z,1.12
2024-04-10T01:03:48.733Z,1.24
2024-04-10T01:04:48.664Z,1.21
2024-04-10T01:05:48.608Z,1.40
2024-04-10T01:06:48.606Z,1.65
2024-04-10T01:07:48.716Z,1.13
2024-04-10T01:08:48.675Z,1.16
2024-04-10T01:09:48.684Z,1.27
2024-04-10T01:10:48.847Z,1.23
2024-04-10T01:11:48.915Z,1.03
2024-04-10T01:12:48.755Z,1.06
2024-04-10T01:13:48.896Z,1.11
2024-04-10T01:14:48.798Z,1.01
2024-04-10T01:15:48.783Z,1.34
2024-04-10T01:16:48.943Z,1.06
2024-04-10T01:17:48.843Z,0.98
2024-04-10T01:18:48.810Z,1.84
2024-04-10T01:19:48.838Z,0.86
2024-04-10T01:20:48.808Z,1.25
2024-04-10T01:21:48.801Z,0.88
2024-04-10T01:22:48.834Z,1.31
2024-04-10T01:23:48.789Z,1.26
2024-04-10T01:24:48.786Z,1.24
2024-04-10T01:25:48.845Z,0.85
2024-04-10T01:26:48.783Z,1.15
2024-04-10T01:27:48.812Z,1.01
2024-04-10T01:28:48.903Z,1.00
2024-04-10T01:29:48.798Z,1.19
2024-04-10T01:30:48.809Z,0.92
2024-04-10T01:31:48.890Z,1.10
2024-04-10T01:32:48.938Z,0.96
2024-04-10T01:33:48.938Z,1.49
2024-04-10T01:34:48.846Z,0.90
2024-04-10T01:35:48.867Z,1.33
2024-04-10T01:36:48.932Z,1.30
2024-04-10T01:37:48.980Z,1.16
2024-04-10T01:38:48.949Z,1.33
2024-04-10T01:39:48.938Z,1.52
2024-04-10T01:40:49.016Z,1.34
2024-04-10T01:41:48.952Z,1.11
2024-04-10T01:42:48.955Z,1.28
2024-04-10T01:43:49.077Z,1.24
2024-04-10T01:44:48.973Z,1.14
2024-04-10T01:45:48.972Z,1.07
2024-04-10T01:46:49.009Z,1.45
2024-04-10T01:47:49.136Z,1.10
2024-04-10T01:48:49.134Z,1.18
2024-04-10T01:49:49.004Z,1.11
2024-04-10T01:50:48.993Z,1.22
2024-04-10T01:51:48.972Z,1.34
2024-04-10T01:52:48.999Z,1.17
2024-04-10T01:53:48.988Z,1.17
2024-04-10T01:54:48.987Z,1.09
2024-04-10T01:55:49.046Z,0.99
2024-04-10T01:56:48.987Z,1.02
2024-04-10T01:57:48.983Z,1.25
2024-04-10T01:58:49.074Z,1.02
2024-04-10T01:59:48.989Z,1.25
2024-04-10T02:00:49.064Z,1.23
2024-04-10T02:01:49.017Z,1.07
2024-04-10T02:02:49.102Z,1.18
2024-04-10T02:03:49.083Z,1.40
2024-04-10T02:04:49.067Z,1.12
2024-04-10T02:05:49.009Z,1.29
2024-04-10T02:06:49.004Z,0.93
2024-04-10T02:07:49.051Z,1.06
2024-04-10T02:08:49.014Z,1.06
2024-04-10T02:09:49.048Z,1.20
2024-04-10T02:10:49.213Z,1.45
2024-04-10T02:11:49.216Z,1.16
2024-04-10T02:12:49.150Z,0.66
2024-04-10T02:13:49.240Z,0.93
2024-04-10T02:14:49.244Z,2.65
2024-04-10T02:15:49.272Z,1.18
2024-04-10T02:16:49.450Z,1.19
2024-04-10T02:17:49.445Z,1.10
2024-04-10T02:18:49.398Z,1.22
2024-04-10T02:19:49.480Z,1.07
2024-04-10T02:20:49.452Z,1.10
2024-04-10T02:21:49.467Z,1.05
2024-04-10T02:22:49.555Z,1.24
2024-04-10T02:23:49.536Z,1.12
2024-04-10T02:24:49.574Z,1.07
2024-04-10T02:25:49.740Z,1.09
2024-04-10T02:26:49.670Z,1.31
2024-04-10T02:27:49.680Z,1.22
2024-04-10T02:28:49.828Z,1.36
2024-04-10T02:29:49.830Z,1.28
2024-04-10T02:30:49.814Z,1.01
2024-04-10T02:31:49.864Z,0.92
2024-04-10T02:32:49.967Z,1.02
2024-04-10T02:33:49.997Z,0.87
2024-04-10T02:34:49.994Z,1.19
2024-04-10T02:35:49.999Z,1.13
2024-04-10T02:36:49.998Z,1.08
2024-04-10T02:37:50.067Z,1.05
2024-04-10T02:38:50.098Z,0.84
2024-04-10T02:39:50.145Z,1.16
2024-04-10T02:40:50.203Z,1.24
2024-04-10T02:41:50.217Z,1.40
2024-04-10T02:42:50.259Z,1.40
2024-04-10T02:43:50.357Z,0.87
2024-04-10T02:44:50.333Z,1.32
2024-04-10T02:45:50.383Z,1.21
2024-04-10T02:46:50.437Z,0.87
2024-04-10T02:47:50.618Z,1.33
2024-04-10T02:48:50.499Z,1.26
2024-04-10T02:49:50.560Z,1.00
2024-04-10T02:50:50.556Z,1.34
2024-04-10T02:51:50.593Z,1.20
2024-04-10T02:52:50.652Z,1.04
2024-04-10T02:53:50.673Z,0.99
2024-04-10T02:54:50.734Z,1.21
2024-04-10T02:55:50.779Z,1.23
2024-04-10T02:56:50.775Z,0.78
2024-04-10T02:57:50.833Z,0.90
2024-04-10T02:58:50.904Z,1.03
2024-04-10T02:59:50.907Z,0.85
2024-04-10T03:00:51.015Z,1.12
2024-04-10T03:01:51.026Z,0.99
2024-04-10T03:02:51.104Z,1.11
2024-04-10T03:03:51.047Z,1.00
2024-04-10T03:04:51.072Z,1.08
2024-04-10T03:05:51.014Z,0.93
2024-04-10T03:06:51.013Z,1.25
2024-04-10T03:07:51.024Z,0.96
2024-04-10T03:08:51.011Z,1.00
2024-04-10T03:09:51.022Z,1.23
2024-04-10T03:10:51.029Z,1.21
2024-04-10T03:11:51.207Z,1.24
2024-04-10T03:12:51.762Z,1.34
2024-04-10T03:13:51.034Z,1.09
2024-04-10T03:14:51.018Z,1.20
2024-04-10T03:15:51.064Z,0.91
2024-04-10T03:16:51.147Z,1.40
2024-04-10T03:17:51.137Z,0.83
2024-04-10T03:18:51.205Z,1.13
2024-04-10T03:19:51.129Z,1.01
2024-04-10T03:20:51.084Z,0.91
2024-04-10T03:21:51.076Z,1.03
2024-04-10T03:22:52.791Z,0.88
2024-04-10T03:23:51.116Z,0.88
2024-04-10T03:24:51.083Z,0.99
2024-04-10T03:25:51.108Z,1.21
2024-04-10T03:26:51.087Z,1.01
2024-04-10T03:27:51.084Z,0.96
2024-04-10T03:28:51.159Z,0.94
2024-04-10T03:29:51.137Z,0.76
2024-04-10T03:30:51.187Z,0.81
2024-04-10T03:31:51.263Z,1.02
2024-04-10T03:32:51.452Z,0.93
2024-04-10T03:33:51.313Z,1.12
2024-04-10T03:34:51.263Z,1.16
2024-04-10T03:35:51.248Z,1.12
2024-04-10T03:36:51.264Z,1.31
2024-04-10T03:37:51.259Z,0.94
2024-04-10T03:38:51.266Z,1.05
2024-04-10T03:39:51.251Z,1.21
2024-04-10T03:40:51.300Z,1.15
2024-04-10T03:41:51.244Z,1.15
2024-04-10T03:42:51.252Z,0.92
2024-04-10T03:43:51.354Z,1.05
2024-04-10T03:44:51.316Z,0.81
2024-04-10T03:45:51.369Z,1.37
2024-04-10T03:46:51.606Z,1.15
2024-04-10T03:47:51.650Z,0.85
2024-04-10T03:48:51.636Z,0.94
2024-04-10T03:49:51.598Z,0.85
2024-04-10T03:50:51.623Z,1.20
2024-04-10T03:51:51.658Z,1.39
2024-04-10T03:52:51.767Z,1.31
2024-04-10T03:53:51.764Z,0.88
2024-04-10T03:54:51.807Z,1.18
2024-04-10T03:55:51.882Z,0.95
2024-04-10T03:56:51.898Z,1.38
2024-04-10T03:57:51.952Z,1.32
2024-04-10T03:58:52.090Z,1.04
2024-04-10T03:59:52.110Z,0.87
2024-04-10T04:00:52.137Z,0.90
2024-04-10T04:01:52.173Z,0.96
2024-04-10T04:02:52.445Z,0.72
2024-04-10T04:03:52.305Z,1.54
2024-04-10T04:04:52.324Z,1.08
2024-04-10T04:05:52.360Z,1.01
2024-04-10T04:06:52.407Z,1.06
2024-04-10T04:07:52.496Z,0.93
2024-04-10T04:08:52.538Z,0.99
2024-04-10T04:09:52.564Z,0.89
2024-04-10T04:10:52.791Z,1.33
2024-04-10T04:11:52.799Z,1.00
2024-04-10T04:12:52.748Z,0.90
2024-04-10T04:13:52.862Z,1.05
2024-04-10T04:14:52.841Z,0.83
2024-04-10T04:15:52.959Z,0.85
2024-04-10T04:16:53.017Z,1.05
2024-04-10T04:17:53.122Z,0.87
2024-04-10T04:18:53.081Z,0.91
2024-04-10T04:19:53.151Z,0.99
2024-04-10T04:20:53.233Z,0.83
2024-04-10T04:21:53.246Z,1.09
2024-04-10T04:22:53.334Z,1.12
2024-04-10T04:23:53.368Z,0.89
2024-04-10T04:24:53.407Z,0.97
2024-04-10T04:25:53.486Z,0.82
2024-04-10T04:26:53.529Z,0.95
2024-04-10T04:27:53.561Z,1.08
2024-04-10T04:28:53.595Z,0.94
2024-04-10T04:29:53.545Z,0.70
2024-04-10T04:30:53.553Z,0.86
2024-04-10T04:31:53.555Z,1.10
2024-04-10T04:32:53.694Z,1.06
2024-04-10T04:33:53.626Z,0.86
2024-04-10T04:34:53.613Z,0.87
2024-04-10T04:35:53.565Z,0.97
2024-04-10T04:36:53.581Z,0.92
2024-04-10T04:37:53.647Z,0.91
2024-04-10T04:39:00.917Z,0.96
2024-04-10T04:40:00.932Z,0.90
2024-04-10T04:41:00.949Z,0.88
2024-04-10T04:42:00.925Z,1.03
2024-04-10T04:43:00.921Z,1.34
2024-04-10T04:44:02.465Z,0.47
2024-04-10T04:45:00.913Z,1.29
2024-04-10T04:46:00.927Z,0.99
2024-04-10T04:47:01.150Z,0.76
2024-04-10T04:48:00.965Z,1.04
2024-04-10T04:49:00.905Z,0.79
2024-04-10T04:50:01.054Z,1.04
2024-04-10T04:51:01.018Z,0.77
2024-04-10T04:52:01.070Z,1.01
2024-04-10T04:53:01.190Z,1.02
2024-04-10T04:54:01.202Z,1.07
2024-04-10T04:55:01.264Z,1.10
2024-04-10T04:56:01.341Z,0.90
2024-04-10T04:57:01.363Z,1.28
2024-04-10T04:58:01.414Z,0.96
2024-04-10T04:59:01.574Z,0.91
2024-04-10T05:00:01.535Z,0.96
2024-04-10T05:01:01.639Z,1.44
2024-04-10T05:02:01.729Z,0.74
2024-04-10T05:03:01.985Z,1.01
2024-04-10T05:04:01.896Z,0.97
2024-04-10T05:05:01.943Z,0.90
2024-04-10T05:06:01.896Z,1.32
2024-04-10T05:07:01.944Z,1.01
2024-04-10T05:08:02.068Z,0.66
2024-04-10T05:09:02.072Z,0.83
2024-04-10T05:10:02.162Z,0.80
2024-04-10T05:11:02.275Z,0.91
2024-04-10T05:12:04.466Z,0.68
2024-04-10T05:13:02.253Z,1.00
2024-04-10T05:14:02.295Z,0.68
2024-04-10T05:15:02.283Z,0.96
2024-04-10T05:16:02.340Z,1.18
2024-04-10T05:17:02.337Z,0.87
2024-04-10T05:18:02.314Z,0.87
2024-04-10T05:19:02.268Z,0.87
2024-04-10T05:20:02.392Z,0.93
2024-04-10T05:21:02.287Z,1.02
2024-04-10T05:22:02.289Z,0.96
2024-04-10T05:23:02.352Z,1.13
2024-04-10T05:24:02.288Z,0.83
2024-04-10T05:25:02.282Z,1.31
2024-04-10T05:26:02.349Z,1.10
2024-04-10T05:27:02.290Z,0.80
2024-04-10T05:28:02.295Z,0.74
2024-04-10T05:29:02.360Z,0.93
2024-04-10T05:30:02.328Z,0.90
2024-04-10T05:31:02.339Z,0.95
2024-04-10T05:32:02.358Z,0.86
2024-04-10T05:33:02.441Z,1.03
2024-04-10T05:34:02.491Z,0.85
2024-04-10T05:35:02.330Z,0.65
2024-04-10T05:36:02.320Z,1.41
2024-04-10T05:37:02.341Z,0.80
2024-04-10T05:38:02.349Z,1.35
2024-04-10T05:39:02.319Z,1.94
2024-04-10T05:40:02.326Z,1.22
2024-04-10T05:41:02.402Z,1.28
2024-04-10T05:42:02.326Z,1.22
2024-04-10T05:43:02.315Z,1.42
2024-04-10T05:44:02.388Z,1.56
2024-04-10T05:45:02.385Z,1.72
2024-04-10T05:46:02.438Z,2.12
2024-04-10T05:47:02.545Z,1.77
2024-04-10T05:48:02.568Z,1.72
2024-04-10T05:49:02.553Z,1.52
2024-04-10T05:50:02.482Z,1.68
2024-04-10T05:51:02.427Z,1.73
2024-04-10T05:52:02.442Z,2.08
2024-04-10T05:53:04.313Z,1.46
2024-04-10T05:54:02.511Z,1.78
2024-04-10T05:55:02.415Z,1.70
2024-04-10T05:56:02.447Z,1.68
2024-04-10T05:57:02.433Z,1.57
2024-04-10T05:58:02.471Z,1.69
2024-04-10T05:59:02.555Z,1.24
2024-04-10T06:00:02.671Z,1.40
2024-04-10T06:01:02.680Z,1.80
2024-04-10T06:02:02.732Z,2.18
2024-04-10T06:03:02.749Z,2.16
2024-04-10T06:04:02.769Z,1.51
2024-04-10T06:05:02.840Z,1.58
2024-04-10T06:06:02.763Z,1.58
2024-04-10T06:07:02.780Z,1.84
2024-04-10T06:08:02.844Z,2.79
2024-04-10T06:09:02.838Z,1.32
2024-04-10T06:10:02.960Z,1.49
2024-04-10T06:11:02.960Z,1.73
2024-04-10T06:12:03.002Z,1.60
2024-04-10T06:13:02.915Z,1.39
2024-04-10T06:14:02.961Z,1.83
2024-04-10T06:15:02.893Z,2.57
2024-04-10T06:16:02.939Z,1.86
2024-04-10T06:17:02.904Z,1.39
2024-04-10T06:18:02.947Z,2.46
2024-04-10T06:19:02.908Z,1.32
2024-04-10T06:20:02.973Z,1.83
2024-04-10T06:21:02.905Z,2.86
2024-04-10T06:22:02.915Z,2.40
2024-04-10T06:23:02.946Z,2.22
2024-04-10T06:24:02.908Z,2.14
2024-04-10T06:25:02.898Z,2.07
2024-04-10T06:26:02.983Z,3.07
2024-04-10T06:27:02.906Z,2.06
2024-04-10T06:28:02.925Z,2.04
2024-04-10T06:29:02.957Z,2.32
2024-04-10T06:30:02.906Z,1.94
2024-04-10T06:31:02.922Z,1.94
2024-04-10T06:32:02.920Z,2.22
2024-04-10T06:33:03.012Z,1.69
2024-04-10T06:34:03.018Z,2.16
2024-04-10T06:35:02.954Z,2.14
2024-04-10T06:36:02.910Z,2.14
2024-04-10T06:37:02.930Z,2.40
2024-04-10T06:38:02.966Z,2.66
2024-04-10T06:39:02.923Z,2.43
2024-04-10T06:40:02.988Z,2.67
2024-04-10T06:41:03.024Z,2.52
2024-04-10T06:42:02.954Z,2.20
2024-04-10T06:43:02.947Z,2.60
2024-04-10T06:44:03.008Z,2.80
2024-04-10T06:45:02.950Z,2.61
2024-04-10T06:46:03.011Z,2.22
2024-04-10T06:47:03.160Z,3.09
2024-04-10T06:48:03.081Z,3.06
2024-04-10T06:49:03.061Z,2.92
2024-04-10T06:50:03.001Z,2.67
2024-04-10T06:51:02.965Z,2.99
2024-04-10T06:52:02.974Z,3.33
2024-04-10T06:53:02.989Z,2.27
2024-04-10T06:54:03.029Z,2.66
2024-04-10T06:55:03.019Z,2.52
2024-04-10T06:56:03.018Z,2.70
2024-04-10T06:57:02.957Z,2.61
2024-04-10T06:58:02.965Z,2.93
2024-04-10T06:59:02.976Z,2.53
2024-04-10T07:00:02.979Z,2.63
2024-04-10T07:01:03.028Z,3.30
2024-04-10T07:02:03.050Z,2.53
2024-04-10T07:03:02.976Z,2.82
2024-04-10T07:04:03.008Z,2.66
2024-04-10T07:05:03.077Z,2.52
2024-04-10T07:06:03.025Z,1.68
2024-04-10T07:07:03.027Z,2.56
2024-04-10T07:08:03.051Z,2.05
2024-04-10T07:09:03.077Z,1.98
2024-04-10T07:10:03.114Z,2.32
2024-04-10T07:11:03.243Z,1.85
2024-04-10T07:12:03.337Z,1.73
2024-04-10T07:13:03.158Z,1.52
2024-04-10T07:14:03.342Z,1.98
2024-04-10T07:15:03.231Z,1.09
2024-04-10T07:16:03.280Z,1.41
2024-04-10T07:17:03.314Z,1.53
2024-04-10T07:18:03.333Z,1.42
2024-04-10T07:19:03.345Z,1.26
2024-04-10T07:20:03.440Z,1.46
2024-04-10T07:21:03.371Z,1.45
2024-04-10T07:22:05.616Z,1.76
2024-04-10T07:23:03.428Z,1.75
2024-04-10T07:24:03.407Z,1.15
2024-04-10T07:25:03.759Z,2.42
2024-04-10T07:26:03.479Z,1.44
2024-04-10T07:27:03.472Z,1.72
2024-04-10T07:28:03.411Z,1.80
2024-04-10T07:29:03.432Z,3.02
2024-04-10T07:30:03.427Z,2.36
2024-04-10T07:31:03.439Z,2.67
2024-04-10T07:32:03.520Z,2.31
2024-04-10T07:33:03.582Z,2.67
2024-04-10T07:34:03.626Z,2.11
2024-04-10T07:35:03.619Z,2.56
2024-04-10T07:36:03.535Z,1.59
2024-04-10T07:37:03.461Z,2.86
2024-04-10T07:38:03.479Z,2.62
2024-04-10T07:39:03.442Z,1.85
2024-04-10T07:40:03.446Z,2.17
2024-04-10T07:41:03.468Z,2.63
2024-04-10T07:42:03.448Z,3.43
2024-04-10T07:43:03.455Z,2.16
2024-04-10T07:44:03.488Z,2.64
2024-04-10T07:45:03.454Z,1.96
2024-04-10T07:46:03.462Z,2.06
2024-04-10T07:47:03.618Z,1.61
2024-04-10T07:48:03.590Z,1.32
2024-04-10T07:49:03.614Z,1.68
2024-04-10T07:50:03.576Z,1.24
2024-04-10T07:51:03.464Z,1.86
2024-04-10T07:52:03.469Z,1.24
2024-04-10T07:53:03.540Z,1.28
2024-04-10T07:54:03.486Z,1.49
2024-04-10T07:55:03.483Z,1.51
2024-04-10T07:56:03.519Z,1.79
2024-04-10T07:57:03.533Z,1.89
2024-04-10T07:58:03.613Z,1.80
2024-04-10T07:59:03.682Z,1.51
2024-04-10T08:00:03.702Z,1.72
2024-04-10T08:01:03.792Z,1.55
2024-04-10T08:02:03.871Z,2.14
2024-04-10T08:03:03.974Z,1.40
2024-04-10T08:04:04.119Z,2.37
2024-04-10T08:05:04.061Z,1.65
2024-04-10T08:06:04.002Z,1.86
2024-04-10T08:07:04.073Z,1.81
2024-04-10T08:08:04.151Z,1.96
2024-04-10T08:09:04.182Z,1.73
2024-04-10T08:10:04.229Z,1.47
2024-04-10T08:11:04.553Z,1.84
2024-04-10T08:12:04.373Z,1.62
2024-04-10T08:13:04.252Z,1.68
2024-04-10T08:14:04.310Z,1.62
2024-04-10T08:15:04.259Z,1.85
2024-04-10T08:16:04.290Z,2.38
2024-04-10T08:17:04.275Z,1.58
2024-04-10T08:18:04.273Z,1.69
2024-04-10T08:19:04.244Z,1.68
2024-04-10T08:20:04.244Z,1.63
2024-04-10T08:21:04.231Z,1.43
2024-04-10T08:22:04.286Z,1.29
2024-04-10T08:23:04.409Z,1.27
2024-04-10T08:24:04.426Z,1.82
2024-04-10T08:25:04.499Z,1.85
2024-04-10T08:26:04.547Z,1.24
2024-04-10T08:27:04.604Z,2.97
2024-04-10T08:28:04.596Z,1.60
2024-04-10T08:29:04.802Z,1.48
2024-04-10T08:30:04.614Z,1.21
2024-04-10T08:31:04.603Z,1.88
2024-04-10T08:32:04.633Z,1.92
2024-04-10T08:33:04.778Z,2.30
2024-04-10T08:34:04.770Z,1.47
2024-04-10T08:35:04.711Z,1.89
2024-04-10T08:36:04.662Z,1.59
2024-04-10T08:37:04.752Z,1.81
2024-04-10T08:38:04.787Z,1.75
2024-04-10T08:39:04.788Z,1.66
2024-04-10T08:40:04.889Z,1.76
2024-04-10T08:41:04.827Z,2.42
2024-04-10T08:42:04.779Z,1.85
2024-04-10T08:43:04.824Z,2.55
2024-04-10T08:44:04.818Z,2.00
2024-04-10T08:45:04.821Z,2.25
2024-04-10T08:46:04.792Z,2.07
2024-04-10T08:47:04.947Z,2.12
2024-04-10T08:48:05.054Z,2.53
2024-04-10T08:49:05.060Z,1.98
2024-04-10T08:50:05.097Z,2.16
2024-04-10T08:51:05.134Z,2.34
2024-04-10T08:52:05.356Z,2.57
2024-04-10T08:53:05.284Z,2.45
2024-04-10T08:54:05.424Z,2.54
2024-04-10T08:55:05.549Z,2.21
2024-04-10T08:56:10.272Z,2.26
2024-04-10T08:57:06.488Z,2.61
2024-04-10T08:58:05.500Z,2.56
2024-04-10T08:59:05.504Z,2.43
2024-04-10T09:00:05.487Z,2.58
2024-04-10T09:01:05.633Z,2.78
2024-04-10T09:02:05.542Z,2.66
2024-04-10T09:03:05.525Z,2.34
2024-04-10T09:04:05.640Z,2.37
2024-04-10T09:05:05.637Z,2.46
2024-04-10T09:06:05.567Z,2.08
2024-04-10T09:07:05.722Z,3.01
2024-04-10T09:08:05.554Z,2.81
2024-04-10T09:09:05.598Z,2.54
2024-04-10T09:10:05.624Z,2.88
2024-04-10T09:11:05.728Z,3.22
2024-04-10T09:12:05.694Z,3.09
2024-04-10T09:13:07.452Z,2.56
2024-04-10T09:14:05.831Z,2.87
2024-04-10T09:15:05.773Z,2.06
2024-04-10T09:16:05.800Z,2.49
2024-04-10T09:17:05.999Z,2.02
2024-04-10T09:18:05.950Z,2.48
2024-04-10T09:19:05.891Z,2.57
2024-04-10T09:20:05.887Z,2.68
2024-04-10T09:21:05.925Z,2.56
2024-04-10T09:22:06.296Z,1.89
2024-04-10T09:23:05.969Z,2.91
2024-04-10T09:24:06.056Z,2.50
2024-04-10T09:25:06.062Z,2.72
2024-04-10T09:26:06.041Z,1.93
2024-04-10T09:27:06.084Z,2.31
2024-04-10T09:28:06.071Z,2.43
2024-04-10T09:29:06.089Z,1.94
2024-04-10T09:30:06.149Z,2.32
2024-04-10T09:31:06.115Z,2.25
2024-04-10T09:32:07.095Z,2.02
2024-04-10T09:33:06.316Z,2.11
2024-04-10T09:34:06.303Z,1.45
2024-04-10T09:35:06.167Z,2.20
2024-04-10T09:36:06.172Z,1.96
2024-04-10T09:37:06.135Z,2.13
2024-04-10T09:38:06.129Z,2.72
2024-04-10T09:39:06.183Z,2.33
2024-04-10T09:40:06.130Z,2.01
2024-04-10T09:41:06.133Z,2.87
2024-04-10T09:42:06.157Z,2.00
2024-04-10T09:43:06.147Z,2.39
2024-04-10T09:44:06.139Z,2.10
2024-04-10T09:45:06.222Z,3.33
2024-04-10T09:46:06.191Z,4.25
2024-04-10T09:47:06.313Z,3.35
2024-04-10T09:48:06.243Z,2.54
2024-04-10T09:49:06.260Z,2.26
2024-04-10T09:50:06.151Z,2.55
2024-04-10T09:51:06.431Z,3.02
2024-04-10T09:52:06.169Z,2.53
2024-04-10T09:53:06.149Z,2.09
2024-04-10T09:54:06.216Z,2.04
2024-04-10T09:55:06.184Z,2.18
2024-04-10T09:56:06.205Z,1.70
2024-04-10T09:57:06.171Z,1.95
2024-04-10T09:58:06.227Z,1.82
2024-04-10T09:59:06.203Z,2.10
2024-04-10T10:00:06.385Z,1.73
2024-04-10T10:01:06.235Z,1.90
2024-04-10T10:02:06.210Z,2.24
2024-04-10T10:03:06.279Z,2.26
2024-04-10T10:04:06.344Z,1.85
2024-04-10T10:05:06.173Z,1.99
2024-04-10T10:06:06.348Z,1.63
2024-04-10T10:07:06.192Z,1.74
2024-04-10T10:08:06.225Z,2.38
2024-04-10T10:09:06.334Z,1.40
2024-04-10T10:10:06.311Z,1.92
2024-04-10T10:11:08.515Z,1.46
2024-04-10T10:12:06.487Z,1.75
2024-04-10T10:13:06.352Z,1.94
2024-04-10T10:14:06.360Z,1.64
2024-04-10T10:15:06.426Z,2.11
2024-04-10T10:16:06.594Z,2.60
2024-04-10T10:17:06.387Z,1.87
2024-04-10T10:18:08.452Z,1.66
2024-04-10T10:19:06.568Z,2.16
2024-04-10T10:20:06.369Z,1.53
2024-04-10T10:21:06.529Z,1.76
2024-04-10T10:22:09.366Z,1.66
2024-04-10T10:23:08.489Z,2.02
2024-04-10T10:24:06.487Z,1.95
2024-04-10T10:25:06.389Z,1.98
2024-04-10T10:26:06.503Z,2.14
2024-04-10T10:27:06.476Z,1.69
2024-04-10T10:28:06.383Z,1.93
2024-04-10T10:29:09.566Z,2.06
2024-04-10T10:30:06.532Z,1.62
2024-04-10T10:31:06.385Z,1.94
2024-04-10T10:32:06.427Z,1.88
2024-04-10T10:33:06.660Z,2.00
2024-04-10T10:34:06.663Z,1.70
2024-04-10T10:35:08.786Z,2.27
2024-04-10T10:36:06.707Z,2.22
2024-04-10T10:37:06.427Z,1.64
2024-04-10T10:38:07.769Z,2.25
2024-04-10T10:39:06.462Z,1.79
2024-04-10T10:40:06.419Z,1.82
2024-04-10T10:41:07.257Z,2.17
2024-04-10T10:42:06.496Z,2.35
2024-04-10T10:43:06.525Z,2.08
2024-04-10T10:44:06.430Z,1.69
2024-04-10T10:45:06.447Z,2.05
2024-04-10T10:46:06.452Z,1.51
2024-04-10T10:47:07.937Z,1.43
2024-04-10T10:48:06.840Z,1.96
2024-04-10T10:49:06.462Z,1.49
2024-04-10T10:50:06.446Z,1.99
2024-04-10T10:51:09.162Z,1.74
2024-04-10T10:52:06.435Z,2.02
2024-04-10T10:53:09.314Z,1.79
2024-04-10T10:54:06.487Z,2.04
2024-04-10T10:55:06.473Z,1.91
2024-04-10T10:56:06.503Z,1.73
2024-04-10T10:57:06.549Z,1.96
2024-04-10T10:58:06.453Z,1.95
2024-04-10T10:59:08.896Z,1.99
2024-04-10T11:00:06.563Z,1.59
2024-04-10T11:01:06.504Z,1.75
2024-04-10T11:02:06.489Z,1.76
2024-04-10T11:03:16.306Z,2.03
2024-04-10T11:04:07.780Z,1.86
2024-04-10T11:05:07.498Z,2.00
2024-04-10T11:06:06.802Z,1.71
2024-04-10T11:07:06.657Z,1.70
2024-04-10T11:08:06.669Z,1.80
2024-04-10T11:09:06.738Z,2.30
2024-04-10T11:10:06.773Z,1.53
2024-04-10T11:11:09.019Z,1.63
2024-04-10T11:12:06.902Z,1.81
2024-04-10T11:13:06.797Z,1.93
2024-04-10T11:14:06.795Z,1.41
2024-04-10T11:15:06.990Z,1.43
2024-04-10T11:16:06.921Z,1.34
2024-04-10T11:17:08.572Z,1.61
2024-04-10T11:18:06.881Z,1.58
2024-04-10T11:19:06.822Z,1.23
2024-04-10T11:20:06.816Z,1.83
2024-04-10T11:21:06.852Z,1.64
2024-04-10T11:22:06.831Z,1.69
2024-04-10T11:23:08.212Z,1.85
2024-04-10T11:24:06.905Z,1.20
2024-04-10T11:25:06.843Z,2.27
2024-04-10T11:26:06.840Z,1.59
2024-04-10T11:27:06.897Z,1.46
2024-04-10T11:28:06.850Z,1.60
2024-04-10T11:29:08.824Z,1.46
2024-04-10T11:30:07.210Z,1.28
2024-04-10T11:31:07.148Z,1.83
2024-04-10T11:32:07.189Z,3.04
2024-04-10T11:33:07.399Z,1.01
2024-04-10T11:34:07.450Z,1.33
2024-04-10T11:35:07.296Z,1.50
2024-04-10T11:36:07.571Z,1.71
2024-04-10T11:37:07.435Z,1.08
2024-04-10T11:38:07.446Z,1.53
2024-04-10T11:39:07.528Z,1.32
2024-04-10T11:40:07.580Z,1.69
2024-04-10T11:41:08.726Z,1.55
2024-04-10T11:42:07.617Z,1.70
2024-04-10T11:43:07.688Z,1.92
2024-04-10T11:44:07.716Z,1.24
2024-04-10T11:45:07.806Z,1.63
2024-04-10T11:46:07.821Z,1.46
2024-04-10T11:47:07.948Z,1.46
2024-04-10T11:48:10.400Z,1.42
2024-04-10T11:49:07.956Z,0.94
2024-04-10T11:50:07.845Z,1.37
2024-04-10T11:51:07.907Z,0.98
2024-04-10T11:52:07.866Z,1.38
2024-04-10T11:53:07.851Z,1.36
2024-04-10T11:54:07.886Z,1.51
2024-04-10T11:55:07.984Z,1.42
2024-04-10T11:56:07.892Z,1.29
2024-04-10T11:57:07.917Z,1.81
2024-04-10T11:58:10.314Z,1.39
2024-04-10T11:59:07.853Z,1.45
2024-04-10T12:00:07.942Z,1.36
2024-04-10T12:01:07.970Z,1.44
2024-04-10T12:02:07.905Z,1.14
2024-04-10T12:03:08.092Z,1.19
2024-04-10T12:04:08.085Z,1.10
2024-04-10T12:05:08.190Z,1.55
2024-04-10T12:06:07.984Z,1.23
2024-04-10T12:07:07.906Z,1.23
2024-04-10T12:08:10.034Z,1.27
2024-04-10T12:09:08.197Z,1.33
2024-04-10T12:10:08.216Z,1.30
2024-04-10T12:11:08.389Z,1.45
2024-04-10T12:12:08.367Z,1.25
2024-04-10T12:13:08.361Z,1.09
2024-04-10T12:14:11.136Z,0.84
2024-04-10T12:15:08.425Z,1.08
2024-04-10T12:16:08.502Z,1.10
2024-04-10T12:17:08.504Z,1.69
2024-04-10T12:18:08.440Z,1.07
2024-04-10T12:19:08.474Z,1.04
2024-04-10T12:20:10.878Z,1.19
2024-04-10T12:21:08.478Z,1.61
2024-04-10T12:22:08.438Z,1.02
2024-04-10T12:23:08.470Z,0.80
2024-04-10T12:24:08.485Z,1.25
2024-04-10T12:25:08.440Z,1.43
2024-04-10T12:26:09.026Z,1.17
2024-04-10T12:27:08.451Z,1.47
2024-04-10T12:28:08.423Z,1.12
2024-04-10T12:29:08.425Z,1.13
2024-04-10T12:30:08.545Z,1.16
2024-04-10T12:31:08.452Z,0.96
2024-04-10T12:32:09.528Z,1.26
2024-04-10T12:33:08.647Z,1.36
2024-04-10T12:34:08.576Z,1.31
2024-04-10T12:35:08.429Z,0.87
2024-04-10T12:36:08.446Z,0.72
2024-04-10T12:37:08.459Z,1.65
2024-04-10T12:38:10.100Z,1.28
2024-04-10T12:39:08.531Z,1.10
2024-04-10T12:40:08.502Z,1.26
2024-04-10T12:41:08.493Z,0.95
2024-04-10T12:42:08.504Z,1.03
2024-04-10T12:43:08.603Z,1.40
2024-04-10T12:44:09.733Z,1.09
2024-04-10T12:45:08.733Z,0.98
2024-04-10T12:46:08.751Z,1.38
2024-04-10T12:47:08.779Z,1.23
2024-04-10T12:48:09.014Z,0.79
2024-04-10T12:49:08.892Z,0.85
2024-04-10T12:50:09.210Z,1.00
2024-04-10T12:51:09.030Z,1.10
2024-04-10T12:52:09.098Z,1.02
2024-04-10T12:53:09.146Z,0.92
2024-04-10T12:54:09.338Z,1.50
2024-04-10T12:55:09.211Z,0.98
2024-04-10T12:56:09.225Z,1.12
2024-04-10T12:57:09.191Z,1.21
2024-04-10T12:58:09.198Z,0.97
2024-04-10T12:59:09.207Z,1.11
2024-04-10T13:00:09.226Z,1.06
2024-04-10T13:01:09.331Z,1.19
2024-04-10T13:02:09.260Z,1.37
2024-04-10T13:03:09.373Z,0.88
2024-04-10T13:04:09.762Z,1.26
2024-04-10T13:05:09.482Z,1.09
2024-04-10T13:06:09.706Z,1.08
2024-04-10T13:07:09.548Z,1.22
2024-04-10T13:08:09.610Z,1.14
2024-04-10T13:09:09.749Z,1.22
2024-04-10T13:10:09.744Z,1.12
2024-04-10T13:11:09.819Z,0.82
2024-04-10T13:12:10.128Z,0.96
2024-04-10T13:13:12.261Z,1.06
2024-04-10T13:14:10.914Z,0.86
2024-04-10T13:15:10.037Z,1.18
2024-04-10T13:16:10.390Z,0.83
2024-04-10T13:17:09.981Z,1.38
2024-04-10T13:18:10.041Z,1.51
2024-04-10T13:19:10.029Z,1.41